SLRS weather

Rio Seco Airport
Campo Ingelmeco, Santa Cruz Department, Bolivia

Public forecast

Using degrees Celsius for public forecast. Weather courtesy of forecast.io.

Closest aviation weather report (METAR) to Rio Seco Airport

Report is more than 6 hours old.

Closest report is El Trompillo Airport, 23.9 nm (44.2 km) NNE. Retrieved 2020/04/07 22:00 UTC (7 hours ago):

SLET 072200Z 13003KT 9999 SCT070 BKN200 26/17 Q1015

Closest aviation forecast (TAF) to Rio Seco Airport

Closest forecast is El Trompillo Airport, 23.9 nm (44.2 km) NNE. Retrieved 2020-04-08 00:47 UTC (4 hours ago):

TAF SLET 072245Z 0800/0824 15010KT 9999 SCT025 BKN080 TX29/0820Z TN20/0810Z BECMG 0814/0816 16015G25KT SCT030 SCT090 BECMG 0822/0824 15007KT NSC